createdAt,value
2022-11-13T00:01:44.294Z,52.89
2022-11-13T00:04:30.354Z,52.94
2022-11-13T00:07:16.699Z,52.69
2022-11-13T00:10:02.604Z,52.68
2022-11-13T00:12:48.966Z,52.82
2022-11-13T00:15:35.227Z,52.61
2022-11-13T00:18:21.016Z,52.64
2022-11-13T00:21:14.880Z,52.23
2022-11-13T00:24:01.594Z,52.77
2022-11-13T00:26:47.979Z,52.49
2022-11-13T00:29:34.278Z,52.61
2022-11-13T00:32:20.915Z,52.55
2022-11-13T00:35:07.638Z,52.26
2022-11-13T00:37:54.735Z,51.80
2022-11-13T00:40:40.473Z,52.23
2022-11-13T00:43:27.860Z,52.20
2022-11-13T00:46:13.648Z,51.92
2022-11-13T00:48:59.821Z,52.25
2022-11-13T00:51:46.045Z,52.56
2022-11-13T00:54:31.815Z,52.20
2022-11-13T00:57:18.111Z,52.16
2022-11-13T01:00:05.027Z,52.34
2022-11-13T01:02:51.436Z,52.04
2022-11-13T01:05:39.150Z,52.25
2022-11-13T01:08:25.393Z,52.03
2022-11-13T01:11:17.555Z,52.13
2022-11-13T01:14:03.429Z,52.13
2022-11-13T01:16:49.436Z,52.11
2022-11-13T01:19:35.404Z,52.01
2022-11-13T01:22:23.727Z,51.82
2022-11-13T01:25:09.674Z,51.85
2022-11-13T01:27:55.950Z,52.26
2022-11-13T01:30:42.033Z,52.11
2022-11-13T01:33:28.056Z,52.09
2022-11-13T01:36:19.490Z,51.45
2022-11-13T01:39:05.845Z,51.54
2022-11-13T01:41:51.807Z,51.49
2022-11-13T01:44:52.878Z,51.00
2022-11-13T01:47:38.749Z,51.67
2022-11-13T01:50:25.322Z,51.87
2022-11-13T01:53:11.931Z,51.81
2022-11-13T01:55:58.307Z,52.16
2022-11-13T01:58:51.607Z,52.37
2022-11-13T02:01:37.779Z,52.57
2022-11-13T02:04:25.253Z,52.82
2022-11-13T02:07:15.210Z,52.42
2022-11-13T02:10:01.365Z,52.67
2022-11-13T02:12:50.968Z,52.77
2022-11-13T02:15:37.729Z,52.72
2022-11-13T02:18:26.498Z,52.73
2022-11-13T02:21:12.522Z,52.54
2022-11-13T02:24:45.364Z,51.90
2022-11-13T02:27:40.802Z,52.27
2022-11-13T02:30:33.082Z,52.14
2022-11-13T02:33:23.593Z,52.72
2022-11-13T02:36:12.122Z,52.86
2022-11-13T02:39:00.957Z,52.81
2022-11-13T02:41:46.745Z,53.21
2022-11-13T02:44:32.672Z,53.74
2022-11-13T02:47:18.659Z,54.28
2022-11-13T02:50:06.475Z,55.20
2022-11-13T02:52:52.799Z,55.17
2022-11-13T02:55:38.959Z,55.11
2022-11-13T02:58:25.346Z,55.74
2022-11-13T03:01:11.469Z,55.95
2022-11-13T03:03:58.473Z,55.60
2022-11-13T03:06:44.791Z,55.94
2022-11-13T03:09:31.016Z,55.49
2022-11-13T03:12:17.253Z,55.58
2022-11-13T03:15:03.860Z,55.58
2022-11-13T03:17:49.769Z,55.69
2022-11-13T03:20:41.644Z,55.57
2022-11-13T03:23:28.423Z,55.25
2022-11-13T03:26:17.700Z,55.08
2022-11-13T03:29:04.125Z,54.89
2022-11-13T03:31:50.028Z,54.88
2022-11-13T03:34:36.025Z,54.40
2022-11-13T03:37:22.311Z,53.82
2022-11-13T03:40:08.796Z,54.25
2022-11-13T03:42:54.813Z,54.37
2022-11-13T03:45:40.972Z,54.48
2022-11-13T03:48:29.659Z,54.11
2022-11-13T03:51:15.845Z,53.96
2022-11-13T03:54:01.800Z,53.83
2022-11-13T03:56:47.803Z,53.27
2022-11-13T03:59:34.066Z,52.79
2022-11-13T04:02:19.985Z,52.89
2022-11-13T04:05:08.056Z,54.03
2022-11-13T04:07:54.193Z,54.02
2022-11-13T04:10:40.260Z,54.18
2022-11-13T04:13:26.458Z,54.42
2022-11-13T04:16:12.461Z,55.02
2022-11-13T04:18:58.535Z,55.06
2022-11-13T04:21:44.556Z,54.96
2022-11-13T04:24:30.636Z,55.05
2022-11-13T04:27:16.778Z,55.03
2022-11-13T04:30:04.728Z,54.40
2022-11-13T04:32:51.016Z,53.92
2022-11-13T04:35:37.145Z,53.51
2022-11-13T04:38:23.364Z,53.69
2022-11-13T04:41:30.996Z,53.73
2022-11-13T04:44:16.798Z,53.66
2022-11-13T04:47:03.120Z,54.01
2022-11-13T04:49:48.866Z,54.25
2022-11-13T04:52:34.990Z,54.66
2022-11-13T04:55:20.898Z,54.68
2022-11-13T04:58:07.069Z,54.67
2022-11-13T05:00:52.991Z,54.68
2022-11-13T05:03:39.247Z,54.60
2022-11-13T05:06:25.136Z,54.69
2022-11-13T05:09:11.615Z,54.88
2022-11-13T05:11:57.847Z,54.97
2022-11-13T05:14:43.717Z,54.26
2022-11-13T05:17:30.631Z,54.00
2022-11-13T05:20:17.075Z,54.13
2022-11-13T05:23:03.101Z,54.34
2022-11-13T05:25:49.692Z,54.53
2022-11-13T05:28:37.230Z,54.33
2022-11-13T05:31:23.223Z,54.89
2022-11-13T05:34:09.672Z,55.24
2022-11-13T05:36:55.755Z,55.81
2022-11-13T05:39:41.637Z,55.87
2022-11-13T05:42:27.583Z,55.97
2022-11-13T05:45:13.524Z,56.11
2022-11-13T05:47:59.431Z,55.78
2022-11-13T05:50:45.781Z,55.26
2022-11-13T05:53:34.081Z,54.89
2022-11-13T05:56:23.626Z,54.84
2022-11-13T05:59:09.860Z,54.51
2022-11-13T06:01:55.940Z,54.99
2022-11-13T06:04:41.966Z,54.98
2022-11-13T06:07:28.265Z,55.75
2022-11-13T06:10:14.322Z,56.72
2022-11-13T06:13:00.233Z,57.44
2022-11-13T06:15:46.603Z,58.19
2022-11-13T06:18:33.931Z,58.65
2022-11-13T06:21:22.387Z,58.92
2022-11-13T06:24:11.087Z,59.58
2022-11-13T06:26:56.885Z,59.59
2022-11-13T06:29:43.227Z,60.15
2022-11-13T06:32:30.923Z,59.67
2022-11-13T06:35:16.968Z,58.21
2022-11-13T06:38:02.925Z,57.74
2022-11-13T06:40:49.176Z,57.32
2022-11-13T06:43:35.474Z,56.56
2022-11-13T06:46:23.961Z,55.83
2022-11-13T06:49:09.978Z,55.56
2022-11-13T06:51:56.215Z,54.97
2022-11-13T06:54:42.381Z,55.05
2022-11-13T06:57:30.697Z,54.59
2022-11-13T07:00:17.209Z,54.98
2022-11-13T07:03:03.382Z,54.15
2022-11-13T07:05:49.869Z,53.26
2022-11-13T07:08:37.066Z,52.28
2022-11-13T07:11:23.882Z,52.18
2022-11-13T07:14:12.933Z,51.79
2022-11-13T07:17:09.239Z,52.08
2022-11-13T07:19:58.548Z,51.73
2022-11-13T07:22:55.019Z,51.17
2022-11-13T07:25:41.387Z,50.84
2022-11-13T07:28:27.800Z,50.94
2022-11-13T07:31:15.000Z,51.05
2022-11-13T07:34:01.281Z,50.76
2022-11-13T07:36:47.454Z,50.56
2022-11-13T07:39:33.515Z,50.50
2022-11-13T07:42:19.770Z,50.34
2022-11-13T07:45:07.319Z,50.80
2022-11-13T07:47:57.886Z,49.87
2022-11-13T07:50:43.726Z,50.07
2022-11-13T07:53:30.303Z,49.14
2022-11-13T07:56:21.776Z,48.73
2022-11-13T07:59:11.549Z,48.37
2022-11-13T08:01:57.565Z,47.80
2022-11-13T08:04:43.771Z,47.65
2022-11-13T08:07:31.097Z,48.71
2022-11-13T08:10:18.413Z,48.62
2022-11-13T08:13:07.795Z,48.47
2022-11-13T08:15:53.908Z,47.76
2022-11-13T08:18:40.248Z,46.05
2022-11-13T08:21:26.259Z,44.93
2022-11-13T08:24:12.400Z,44.02
2022-11-13T08:26:58.183Z,43.33
2022-11-13T08:29:44.185Z,41.76
2022-11-13T08:32:31.239Z,40.57
2022-11-13T08:35:19.765Z,38.52
2022-11-13T08:38:08.627Z,36.70
2022-11-13T08:41:08.390Z,35.56
2022-11-13T08:43:55.708Z,37.13
2022-11-13T08:46:41.842Z,38.09
2022-11-13T08:49:28.283Z,38.25
2022-11-13T08:52:15.288Z,36.51
2022-11-13T08:55:01.732Z,35.90
2022-11-13T08:57:47.695Z,36.74
2022-11-13T09:00:34.201Z,37.06
2022-11-13T09:03:20.596Z,37.39
2022-11-13T09:06:08.235Z,37.98
2022-11-13T09:08:54.504Z,39.18
2022-11-13T09:11:43.141Z,39.67
2022-11-13T09:14:29.612Z,39.04
2022-11-13T09:17:15.411Z,37.61
2022-11-13T09:20:04.188Z,36.51
2022-11-13T09:23:07.519Z,33.83
2022-11-13T09:25:53.785Z,33.84
2022-11-13T09:28:40.011Z,33.01
2022-11-13T09:31:26.271Z,31.26
2022-11-13T09:34:12.591Z,30.08
2022-11-13T09:36:58.591Z,29.27
2022-11-13T09:39:44.490Z,28.41
2022-11-13T09:42:33.086Z,28.43
2022-11-13T09:45:19.355Z,29.26
2022-11-13T09:48:13.555Z,28.94
2022-11-13T09:51:06.589Z,30.92
2022-11-13T09:53:52.799Z,33.55
2022-11-13T09:57:01.882Z,34.78
2022-11-13T10:00:02.362Z,36.66
2022-11-13T10:03:59.258Z,37.80
2022-11-13T10:07:00.318Z,38.88
2022-11-13T10:10:05.782Z,39.38
2022-11-13T10:12:54.652Z,39.76
2022-11-13T10:15:44.526Z,39.86
2022-11-13T10:18:36.151Z,39.24
2022-11-13T10:21:44.130Z,38.95
2022-11-13T10:24:40.864Z,41.28
2022-11-13T10:27:26.773Z,42.09
2022-11-13T10:30:16.676Z,43.32
2022-11-13T10:33:06.774Z,44.45
2022-11-13T10:36:04.254Z,44.01
2022-11-13T10:39:02.468Z,43.58
2022-11-13T10:41:54.291Z,41.99
2022-11-13T10:44:41.221Z,41.11
2022-11-13T10:48:01.927Z,41.75
2022-11-13T10:50:37.762Z,42.51
2022-11-13T10:53:26.580Z,43.37
2022-11-13T10:56:35.413Z,43.39
2022-11-13T10:59:21.459Z,43.78
2022-11-13T11:02:21.453Z,44.58
2022-11-13T11:05:18.563Z,44.42
2022-11-13T11:08:08.693Z,44.26
2022-11-13T11:11:27.010Z,44.45
2022-11-13T11:14:26.460Z,46.19
2022-11-13T11:17:16.126Z,46.48
2022-11-13T11:20:37.128Z,47.65
2022-11-13T11:23:45.278Z,47.63
2022-11-13T11:27:01.406Z,48.61
2022-11-13T11:30:20.996Z,49.27
2022-11-13T11:33:20.312Z,49.13
2022-11-13T11:36:12.031Z,48.64
2022-11-13T11:39:39.852Z,48.77
2022-11-13T11:42:47.797Z,47.73
2022-11-13T11:45:44.739Z,48.86
2022-11-13T11:48:32.330Z,48.44
2022-11-13T11:51:34.937Z,49.43
2022-11-13T11:54:34.470Z,48.68
2022-11-13T11:57:23.305Z,48.80
2022-11-13T12:00:13.605Z,49.60
2022-11-13T12:03:02.508Z,49.75
2022-11-13T12:06:13.040Z,50.21
2022-11-13T12:09:04.870Z,50.34
2022-11-13T12:11:56.495Z,50.88
2022-11-13T12:15:14.480Z,51.26
2022-11-13T12:18:26.912Z,50.81
2022-11-13T12:21:22.084Z,51.38
2022-11-13T12:24:58.070Z,51.87
2022-11-13T12:27:53.724Z,51.48
2022-11-13T12:31:08.775Z,51.35
2022-11-13T12:34:17.454Z,51.02
2022-11-13T12:37:11.526Z,51.03
2022-11-13T12:40:04.720Z,50.95
2022-11-13T12:43:06.330Z,51.65
2022-11-13T12:45:54.725Z,51.20
2022-11-13T12:48:48.270Z,51.45
2022-11-13T12:51:40.427Z,51.59
2022-11-13T12:54:37.045Z,52.03
2022-11-13T12:57:30.097Z,52.05
2022-11-13T13:00:28.966Z,53.12
2022-11-13T13:03:37.323Z,53.27
2022-11-13T13:06:23.396Z,52.46
2022-11-13T13:09:25.624Z,53.33
2022-11-13T13:12:23.989Z,54.08
2022-11-13T13:15:31.812Z,54.38
2022-11-13T13:18:17.900Z,53.66
2022-11-13T13:21:06.666Z,54.31
2022-11-13T13:23:53.558Z,54.31
2022-11-13T13:26:47.580Z,54.97
2022-11-13T13:29:33.984Z,54.04
2022-11-13T13:32:32.796Z,54.51
2022-11-13T13:35:39.407Z,54.68
2022-11-13T13:38:36.524Z,54.62
2022-11-13T13:41:44.290Z,55.11
2022-11-13T13:44:41.732Z,54.56
2022-11-13T13:47:32.191Z,54.83
2022-11-13T13:50:24.656Z,55.12
2022-11-13T13:53:16.604Z,54.99
2022-11-13T13:56:04.398Z,54.60
2022-11-13T13:58:52.092Z,54.93
2022-11-13T14:01:38.034Z,54.70
2022-11-13T14:04:25.496Z,54.96
2022-11-13T14:07:31.594Z,55.29
2022-11-13T14:10:20.558Z,55.09
2022-11-13T14:13:06.751Z,55.32
2022-11-13T14:16:07.402Z,56.19
2022-11-13T14:19:03.511Z,56.34
2022-11-13T14:21:53.315Z,56.24
2022-11-13T14:25:00.789Z,56.72
2022-11-13T14:27:47.084Z,55.89
2022-11-13T14:30:33.180Z,55.80
2022-11-13T14:33:24.857Z,55.87
2022-11-13T14:36:12.145Z,56.05
2022-11-13T14:38:58.940Z,55.47
2022-11-13T14:41:55.991Z,55.93
2022-11-13T14:44:42.289Z,55.40
2022-11-13T14:47:37.485Z,55.82
2022-11-13T14:50:30.957Z,55.87
2022-11-13T14:53:33.857Z,55.38
2022-11-13T14:56:19.846Z,54.85
2022-11-13T14:59:26.978Z,54.97
2022-11-13T15:02:13.304Z,54.92
2022-11-13T15:04:59.339Z,54.80
2022-11-13T15:07:46.407Z,54.62
2022-11-13T15:10:32.495Z,54.64
2022-11-13T15:13:18.975Z,54.37
2022-11-13T15:16:06.354Z,54.43
2022-11-13T15:19:05.148Z,54.53
2022-11-13T15:22:20.246Z,54.38
2022-11-13T15:24:57.263Z,54.46
2022-11-13T15:27:43.724Z,54.65
2022-11-13T15:30:29.756Z,54.29
2022-11-13T15:33:16.563Z,54.39
2022-11-13T15:36:02.735Z,54.29
2022-11-13T15:38:48.979Z,54.15
2022-11-13T15:41:36.363Z,54.14
2022-11-13T15:44:22.349Z,54.09
2022-11-13T15:47:30.148Z,54.28
2022-11-13T15:50:16.867Z,54.12
2022-11-13T15:53:05.425Z,54.38
2022-11-13T15:55:52.009Z,54.55
2022-11-13T15:58:37.909Z,54.95
2022-11-13T16:01:24.328Z,54.91
2022-11-13T16:04:13.096Z,55.06
2022-11-13T16:06:58.997Z,55.22
2022-11-13T16:09:45.709Z,55.22
2022-11-13T16:12:31.788Z,55.04
2022-11-13T16:15:18.175Z,55.31
2022-11-13T16:18:04.741Z,55.23
2022-11-13T16:20:50.520Z,55.50
2022-11-13T16:23:36.382Z,55.52
2022-11-13T16:26:25.100Z,55.34
2022-11-13T16:29:19.757Z,55.38
2022-11-13T16:32:06.467Z,54.94
2022-11-13T16:34:52.308Z,55.04
2022-11-13T16:37:39.284Z,54.97
2022-11-13T16:40:26.726Z,55.06
2022-11-13T16:43:13.256Z,54.94
2022-11-13T16:46:00.459Z,55.01
2022-11-13T16:48:47.999Z,55.14
2022-11-13T16:51:33.901Z,54.67
2022-11-13T16:54:20.202Z,55.17
2022-11-13T16:57:06.464Z,54.91
2022-11-13T16:59:52.452Z,55.24
2022-11-13T17:02:39.259Z,55.19
2022-11-13T17:05:25.554Z,55.19
2022-11-13T17:08:13.020Z,55.52
2022-11-13T17:10:59.844Z,55.35
2022-11-13T17:13:51.052Z,56.02
2022-11-13T17:16:37.960Z,55.54
2022-11-13T17:19:23.992Z,55.61
2022-11-13T17:22:14.391Z,55.59
2022-11-13T17:25:00.727Z,55.71
2022-11-13T17:27:47.643Z,56.00
2022-11-13T17:30:34.179Z,55.79
2022-11-13T17:33:20.787Z,55.54
2022-11-13T17:36:09.120Z,55.58
2022-11-13T17:38:55.499Z,55.90
2022-11-13T17:41:41.786Z,56.22
2022-11-13T17:44:28.217Z,56.44
2022-11-13T17:47:14.295Z,56.53
2022-11-13T17:50:06.765Z,56.64
2022-11-13T17:52:53.436Z,56.62
2022-11-13T17:55:39.809Z,56.24
2022-11-13T17:58:26.644Z,56.00
2022-11-13T18:01:19.411Z,56.57
2022-11-13T18:04:05.578Z,56.20
2022-11-13T18:06:52.385Z,56.23
2022-11-13T18:09:38.670Z,56.27
2022-11-13T18:12:24.993Z,56.62
2022-11-13T18:15:11.406Z,56.79
2022-11-13T18:17:57.983Z,56.92
2022-11-13T18:20:44.359Z,56.90
2022-11-13T18:23:31.189Z,56.80
2022-11-13T18:26:19.348Z,57.24
2022-11-13T18:29:05.517Z,57.70
2022-11-13T18:31:51.547Z,57.22
2022-11-13T18:34:37.927Z,57.38
2022-11-13T18:37:24.312Z,57.60
2022-11-13T18:40:11.138Z,57.91
2022-11-13T18:42:57.241Z,58.06
2022-11-13T18:45:43.647Z,58.20
2022-11-13T18:48:30.928Z,58.02
2022-11-13T18:51:20.027Z,58.15
2022-11-13T18:54:09.822Z,58.07
2022-11-13T18:56:56.494Z,57.91
2022-11-13T18:59:42.724Z,58.33
2022-11-13T19:02:31.710Z,58.12
2022-11-13T19:05:17.721Z,58.09
2022-11-13T19:08:03.869Z,58.21
2022-11-13T19:10:50.240Z,58.63
2022-11-13T19:13:37.371Z,58.80
2022-11-13T19:16:26.035Z,59.12
2022-11-13T19:19:22.614Z,59.64
2022-11-13T19:22:09.144Z,59.21
2022-11-13T19:24:55.348Z,59.15
2022-11-13T19:27:41.378Z,59.11
2022-11-13T19:30:27.918Z,59.30
2022-11-13T19:33:14.120Z,59.35
2022-11-13T19:36:09.849Z,60.63
2022-11-13T19:38:56.472Z,59.50
2022-11-13T19:41:42.426Z,59.71
2022-11-13T19:44:28.608Z,59.95
2022-11-13T19:47:14.881Z,60.34
2022-11-13T19:50:00.891Z,60.30
2022-11-13T19:52:46.995Z,60.84
2022-11-13T19:55:34.869Z,60.93
2022-11-13T19:58:20.862Z,61.41
2022-11-13T20:01:14.234Z,61.95
2022-11-13T20:04:02.458Z,61.38
2022-11-13T20:06:48.814Z,61.07
2022-11-13T20:09:34.890Z,61.00
2022-11-13T20:12:21.072Z,60.70
2022-11-13T20:15:07.344Z,60.58
2022-11-13T20:17:53.455Z,60.85
2022-11-13T20:20:43.610Z,60.61
2022-11-13T20:23:29.540Z,60.54
2022-11-13T20:26:19.182Z,60.20
2022-11-13T20:29:05.247Z,60.03
2022-11-13T20:31:52.162Z,60.03
2022-11-13T20:34:38.124Z,60.09
2022-11-13T20:37:24.437Z,59.83
2022-11-13T20:40:11.306Z,59.91
2022-11-13T20:42:57.724Z,60.13
2022-11-13T20:45:44.234Z,60.58
2022-11-13T20:48:30.653Z,60.56
2022-11-13T20:51:20.538Z,60.92
2022-11-13T20:54:06.762Z,60.70
2022-11-13T20:56:52.481Z,61.03
2022-11-13T20:59:38.190Z,61.11
2022-11-13T21:02:24.000Z,61.66
2022-11-13T21:05:09.711Z,61.78
2022-11-13T21:07:56.098Z,61.77
2022-11-13T21:10:42.162Z,62.05
2022-11-13T21:13:28.559Z,61.96
2022-11-13T21:16:15.767Z,62.18
2022-11-13T21:19:01.852Z,62.39
2022-11-13T21:21:48.090Z,62.71
2022-11-13T21:24:34.431Z,62.98
2022-11-13T21:27:20.648Z,63.45
2022-11-13T21:30:07.054Z,63.67
2022-11-13T21:32:53.271Z,63.69
2022-11-13T21:35:38.938Z,63.87
2022-11-13T21:38:25.136Z,64.08
2022-11-13T21:41:22.701Z,64.46
2022-11-13T21:44:10.804Z,64.20
2022-11-13T21:46:56.875Z,64.20
2022-11-13T21:49:43.062Z,63.71
2022-11-13T21:52:31.002Z,63.86
2022-11-13T21:55:17.032Z,63.67
2022-11-13T21:58:03.231Z,63.36
2022-11-13T22:00:49.246Z,63.73
2022-11-13T22:03:35.255Z,63.73
2022-11-13T22:06:25.903Z,63.90
2022-11-13T22:09:23.391Z,63.90
2022-11-13T22:12:10.397Z,63.40
2022-11-13T22:14:56.297Z,63.57
2022-11-13T22:17:42.649Z,63.35
2022-11-13T22:20:28.993Z,63.29
2022-11-13T22:23:16.381Z,63.35
2022-11-13T22:26:16.512Z,63.20
2022-11-13T22:29:02.447Z,63.00
2022-11-13T22:31:48.801Z,63.00
2022-11-13T22:34:35.154Z,62.98
2022-11-13T22:37:21.414Z,62.97
2022-11-13T22:40:08.464Z,62.76
2022-11-13T22:42:55.592Z,62.73
2022-11-13T22:45:41.854Z,62.77
2022-11-13T22:48:28.251Z,62.82
2022-11-13T22:51:17.574Z,62.60
2022-11-13T22:54:09.671Z,62.11
2022-11-13T22:56:56.791Z,62.44
2022-11-13T22:59:42.671Z,62.26
2022-11-13T23:02:28.581Z,62.29
2022-11-13T23:05:14.930Z,62.60
2022-11-13T23:08:01.073Z,62.26
2022-11-13T23:10:54.079Z,62.63
2022-11-13T23:13:44.794Z,62.18
2022-11-13T23:16:31.972Z,62.34
2022-11-13T23:19:18.207Z,62.10
2022-11-13T23:22:04.185Z,61.90
2022-11-13T23:24:49.984Z,61.82
2022-11-13T23:27:36.275Z,61.40
2022-11-13T23:30:22.194Z,61.33
2022-11-13T23:33:08.954Z,60.95
2022-11-13T23:35:55.116Z,61.03
2022-11-13T23:38:42.134Z,60.72
2022-11-13T23:41:28.017Z,61.03
2022-11-13T23:44:13.550Z,60.95
2022-11-13T23:46:59.607Z,61.16
2022-11-13T23:49:45.768Z,60.69
2022-11-13T23:52:31.575Z,60.63
2022-11-13T23:55:17.884Z,60.49
2022-11-13T23:58:05.777Z,60.30
